Los Angeles, CA (90017)

7:03 PM PST on December 09, 2016 (GMT -0800)
Napavado | | Change Station

Elev 466 ft 34.09 °N, 118.27 °W | Updated 6 seconds ago

Mostly Cloudy
Mostly Cloudy
57.5 °F
Feels Like 57.5 °F
N
0.0
Wind Variable Wind from North

Today
High -- | Low -- °F
--% Chance of Precip.
Yesterday
High -- | Low -- °F
Precip. -- in
Pressure 30.16 in
Visibility 5.0 miles
Clouds Mostly Cloudy 600 ft
Dew Point 54 °F
Humidity 91%
Rainfall Not available.
Snow Depth Not available.
6:47 AM 4:43 PM
Waxing Gibbous, 79% visible
SPECI KCQT 100252Z AUTO 00000KT 5SM BR BKN006 15/14 A3016 RMK AO2 T01500139
Pressure 30.16 in
Visibility 5.0 miles
Clouds Mostly Cloudy 600 ft
Dew Point 54 °F
Humidity 91%
Rainfall Not available.
Snow Depth Not available.
6:47 AM 4:43 PM
Waxing Gibbous, 79% visible
SPECI KCQT 100252Z AUTO 00000KT 5SM BR BKN006 15/14 A3016 RMK AO2 T01500139

10-Day Weather Forecast

Almanac

Astronomy

Dec. 09, 2016 Rise Set
Actual Time
Civil Twilight
Nautical Twilight
Astronomical Twilight
Moon
Length of Visible Light
Length of Day
Tomorrow will be .
, % of the Moon is Illuminated

Today's Extremes

State Highs State Lows

Community

WunderPhotos

Upload Photos

1,956,532 photos uploaded!

WunderBlog® & News

Nearby

Air Quality

  Air Quality AQ Index Pollutant
Not available.

Snow Depth

Station Depth Elevation

Earthquake Activity

City Distance Mag. Time & Date
Minimum magnitude displayed is 2.5.

Coastal Water Temperatures

Place Temperature

Stations

Nearby Weather Stations

Station Location Temp. Windchill Dew Point Humidity Wind Precip. Elev Updated Type
                   

Watches & Warnings

There are currently no watches in effect.